Time;durP1;ratioP1;P1;durP2;ratioP2;P2;SDS_P1;SDS_P2;PMS_P1;PMS_P2;Temp;Humidity;BMP_temperature;BMP_pressure;BME280_temperature;BME280_humidity;BME280_pressure;Samples;Min_cycle;Max_cycle;Signal;HPM_P1;HPM_P2
2021/07/03 00:01:01;;;;;;;15.50;11.40;;;20.40;90.30;;;;;;5049329;28;20997;-48
2021/07/03 00:03:28;;;;;;;11.97;10.97;;;20.40;90.30;;;;;;5031387;28;20683;-49
2021/07/03 00:05:55;;;;;;;13.63;12.17;;;20.40;90.30;;;;;;5049224;28;20705;-48
2021/07/03 00:08:27;;;;;;;12.53;11.27;;;20.30;90.10;;;;;;5049197;28;20622;-49
2021/07/03 00:10:55;;;;;;;11.80;10.67;;;20.30;90.10;;;;;;5048850;28;20637;-49
2021/07/03 00:13:23;;;;;;;11.83;10.77;;;20.20;90.00;;;;;;5048877;28;21127;-48
2021/07/03 00:15:50;;;;;;;13.10;11.70;;;20.20;90.20;;;;;;5048138;28;20662;-48
2021/07/03 00:18:17;;;;;;;12.80;11.50;;;20.20;90.20;;;;;;5048944;28;20618;-48
2021/07/03 00:20:44;;;;;;;11.40;10.40;;;20.20;90.30;;;;;;5048951;28;20638;-48
2021/07/03 00:23:12;;;;;;;13.93;12.60;;;20.10;90.40;;;;;;5048892;28;20673;-49
2021/07/03 00:25:39;;;;;;;11.47;10.37;;;20.10;90.50;;;;;;5048859;28;20727;-47
2021/07/03 00:28:08;;;;;;;12.30;11.07;;;20.10;90.50;;;;;;5048493;28;20695;-47
2021/07/03 00:30:35;;;;;;;11.97;10.57;;;20.10;90.50;;;;;;5048757;28;20715;-49
2021/07/03 00:33:02;;;;;;;13.00;11.80;;;20.10;90.50;;;;;;5048839;28;21240;-47
2021/07/03 00:35:29;;;;;;;12.10;11.00;;;20.00;90.50;;;;;;5048682;28;21168;-48
2021/07/03 00:37:56;;;;;;;13.00;11.70;;;19.90;90.50;;;;;;5049071;28;20650;-47
2021/07/03 00:40:24;;;;;;;11.90;10.77;;;19.90;90.70;;;;;;5050343;28;20976;-47
2021/07/03 00:42:51;;;;;;;11.73;10.63;;;19.90;90.80;;;;;;5052751;28;20684;-47
2021/07/03 00:45:20;;;;;;;11.30;10.20;;;19.80;90.90;;;;;;5053100;28;21005;-47
2021/07/03 00:47:47;;;;;;;11.80;10.60;;;19.80;91.30;;;;;;5052462;28;20625;-46
2021/07/03 00:50:14;;;;;;;11.70;10.60;;;19.70;91.00;;;;;;5053157;28;20630;-47
2021/07/03 00:52:42;;;;;;;11.60;10.40;;;19.60;91.10;;;;;;5052900;28;20658;-47
2021/07/03 00:55:10;;;;;;;11.93;10.73;;;19.50;91.40;;;;;;5043300;28;20635;-49
2021/07/03 00:57:38;;;;;;;13.10;11.90;;;19.40;91.60;;;;;;5038640;28;20653;-48
2021/07/03 01:00:06;;;;;;;12.10;10.90;;;19.40;91.80;;;;;;5052425;28;20625;-49
2021/07/03 01:02:35;;;;;;;12.20;11.10;;;19.50;92.00;;;;;;5053067;28;20680;-48
2021/07/03 01:05:02;;;;;;;11.60;10.50;;;19.50;92.00;;;;;;5053500;28;20637;-49
2021/07/03 01:07:29;;;;;;;13.80;12.60;;;19.50;92.00;;;;;;5052775;28;20622;-48
2021/07/03 01:09:56;;;;;;;12.00;10.87;;;19.50;91.90;;;;;;5052541;28;20699;-49
2021/07/03 01:12:23;;;;;;;15.50;12.10;;;19.50;92.00;;;;;;5053355;28;20679;-49
2021/07/03 01:14:51;;;;;;;12.30;11.30;;;19.50;92.00;;;;;;5072204;28;20627;-48
2021/07/03 01:17:19;;;;;;;12.50;11.30;;;19.60;92.00;;;;;;5054268;28;20662;-48
2021/07/03 01:19:48;;;;;;;11.67;10.47;;;19.60;92.10;;;;;;5052704;28;20617;-48
2021/07/03 01:22:16;;;;;;;12.87;11.67;;;19.60;92.20;;;;;;5052581;28;20725;-47
2021/07/03 01:24:44;;;;;;;11.47;10.37;;;19.60;92.30;;;;;;5052660;28;20656;-48
2021/07/03 01:27:13;;;;;;;12.90;11.80;;;19.60;92.30;;;;;;5051891;28;21162;-48
2021/07/03 01:29:40;;;;;;;11.97;10.97;;;19.60;92.30;;;;;;5051603;28;20652;-48
2021/07/03 01:32:08;;;;;;;13.40;12.20;;;19.60;92.50;;;;;;5052643;28;21196;-47
2021/07/03 01:34:35;;;;;;;14.23;12.40;;;19.50;92.50;;;;;;5062307;28;20629;-47
2021/07/03 01:37:02;;;;;;;14.80;13.30;;;19.60;92.60;;;;;;5058781;28;21432;-47
2021/07/03 01:39:31;;;;;;;13.83;12.53;;;19.60;92.70;;;;;;5051597;28;21186;-48
2021/07/03 01:41:58;;;;;;;20.60;13.00;;;19.60;92.80;;;;;;5062880;28;20917;-47
2021/07/03 01:44:27;;;;;;;15.20;13.90;;;19.70;92.90;;;;;;5071147;28;20687;-48
2021/07/03 01:46:55;;;;;;;13.13;11.77;;;19.70;92.90;;;;;;5050631;28;20787;-48
2021/07/03 01:49:22;;;;;;;13.77;12.53;;;19.70;93.00;;;;;;5051444;28;21235;-48
2021/07/03 01:51:49;;;;;;;15.53;14.07;;;19.70;93.00;;;;;;5051098;28;20626;-49
2021/07/03 01:54:17;;;;;;;14.80;13.60;;;19.70;93.00;;;;;;5051251;28;20703;-48
2021/07/03 01:56:46;;;;;;;15.07;12.70;;;19.70;92.90;;;;;;5051495;28;21283;-48
2021/07/03 01:59:13;;;;;;;14.87;13.37;;;19.70;92.90;;;;;;5051028;28;20700;-48
2021/07/03 02:01:40;;;;;;;14.40;13.10;;;19.70;92.90;;;;;;5050649;28;20799;-49
2021/07/03 02:04:07;;;;;;;13.57;12.40;;;19.70;93.00;;;;;;5053444;28;20632;-48
2021/07/03 02:06:34;;;;;;;14.00;12.50;;;19.70;93.00;;;;;;5052400;28;20650;-48
2021/07/03 02:09:02;;;;;;;14.17;12.87;;;19.70;93.10;;;;;;5050920;28;20995;-49
2021/07/03 02:11:29;;;;;;;14.10;12.80;;;19.70;93.40;;;;;;5063494;28;20679;-48
2021/07/03 02:13:57;;;;;;;12.43;11.43;;;19.70;93.20;;;;;;5051803;28;21199;-49
2021/07/03 02:16:25;;;;;;;13.53;12.17;;;19.70;93.00;;;;;;5051406;28;20690;-49
2021/07/03 02:18:52;;;;;;;14.23;12.73;;;19.70;93.10;;;;;;5052029;28;20658;-49
2021/07/03 02:21:19;;;;;;;12.97;11.77;;;19.70;93.20;;;;;;5050960;28;20679;-49
2021/07/03 02:23:47;;;;;;;12.67;11.50;;;19.60;93.20;;;;;;5050730;28;20714;-49
2021/07/03 02:26:14;;;;;;;14.23;12.73;;;19.60;93.30;;;;;;5050740;28;20666;-50
2021/07/03 02:28:41;;;;;;;13.67;12.57;;;19.60;93.40;;;;;;5051317;28;20625;-49
2021/07/03 02:31:10;;;;;;;13.97;12.77;;;19.60;93.50;;;;;;5050683;28;21244;-50
2021/07/03 02:33:37;;;;;;;14.70;13.20;;;19.60;93.50;;;;;;5051412;28;20621;-49
2021/07/03 02:36:05;;;;;;;14.80;13.40;;;19.60;93.60;;;;;;5050524;28;20658;-48
2021/07/03 02:38:32;;;;;;;13.90;12.60;;;19.60;93.60;;;;;;5061191;28;20667;-49
2021/07/03 02:40:59;;;;;;;14.67;13.33;;;19.50;93.60;;;;;;5065847;28;20634;-49
2021/07/03 02:43:26;;;;;;;13.90;12.37;;;19.50;93.90;;;;;;5050296;28;20702;-49
2021/07/03 02:45:53;;;;;;;15.33;13.83;;;19.40;93.60;;;;;;5050778;28;20666;-50
2021/07/03 02:48:22;;;;;;;13.90;12.60;;;19.40;93.70;;;;;;5050411;28;20650;-48
2021/07/03 02:50:49;;;;;;;14.80;13.43;;;19.40;93.70;;;;;;5050229;28;20630;-49
2021/07/03 02:53:16;;;;;;;14.00;12.70;;;19.40;93.70;;;;;;5050779;28;20688;-49
2021/07/03 02:55:44;;;;;;;13.33;12.13;;;19.40;93.80;;;;;;5049685;28;20951;-49
2021/07/03 02:58:11;;;;;;;15.67;12.07;;;19.40;93.80;;;;;;5050449;28;20658;-50
2021/07/03 03:00:38;;;;;;;14.67;13.30;;;19.30;93.80;;;;;;5050015;28;20606;-51
2021/07/03 03:03:05;;;;;;;16.37;14.87;;;19.30;93.90;;;;;;5049606;28;20630;-49
2021/07/03 03:05:34;;;;;;;13.80;12.53;;;19.30;93.80;;;;;;5052854;28;20720;-48
2021/07/03 03:08:01;;;;;;;14.23;12.97;;;19.20;93.80;;;;;;5070329;28;20625;-49
2021/07/03 03:10:28;;;;;;;15.07;13.47;;;19.20;93.80;;;;;;5068974;28;20704;-49
2021/07/03 03:12:56;;;;;;;16.33;13.73;;;19.20;94.00;;;;;;5050119;28;21060;-48
2021/07/03 03:15:23;;;;;;;15.73;14.00;;;19.20;93.70;;;;;;5049576;28;20807;-48
2021/07/03 03:17:50;;;;;;;15.60;13.70;;;19.20;93.80;;;;;;5049716;28;20650;-48
2021/07/03 03:20:17;;;;;;;12.37;11.43;;;19.20;93.80;;;;;;5049890;28;21162;-48
2021/07/03 03:22:46;;;;;;;11.90;10.73;;;19.20;93.80;;;;;;5050301;28;20638;-49
2021/07/03 03:25:13;;;;;;;14.67;13.27;;;19.20;93.80;;;;;;5049611;28;20626;-48
2021/07/03 03:27:41;;;;;;;13.53;12.33;;;19.20;93.70;;;;;;5050360;28;20642;-49
2021/07/03 03:30:09;;;;;;;13.07;11.97;;;19.10;93.70;;;;;;5049471;28;20630;-49
2021/07/03 03:32:36;;;;;;;12.40;11.10;;;19.00;93.80;;;;;;5050069;28;20690;-49
2021/07/03 03:35:04;;;;;;;13.43;12.23;;;19.00;93.90;;;;;;5049584;28;20634;-49
2021/07/03 03:37:31;;;;;;;13.60;12.40;;;19.00;94.00;;;;;;5029325;28;20725;-48
2021/07/03 03:40:00;;;;;;;12.00;11.00;;;19.00;94.10;;;;;;5029856;28;21216;-47
2021/07/03 03:42:27;;;;;;;12.40;11.30;;;18.90;94.00;;;;;;5061657;28;20679;-49
2021/07/03 03:44:54;;;;;;;14.33;13.10;;;18.90;94.10;;;;;;5057193;28;20713;-49
2021/07/03 03:47:22;;;;;;;13.77;12.53;;;18.80;94.50;;;;;;5049000;28;21042;-49
2021/07/03 03:49:49;;;;;;;15.07;13.60;;;18.80;94.30;;;;;;5031380;28;20709;-48
2021/07/03 03:52:16;;;;;;;14.03;12.13;;;18.80;94.50;;;;;;5049434;28;21154;-49
2021/07/03 03:54:43;;;;;;;13.60;12.40;;;18.80;94.60;;;;;;5049392;28;20630;-49
2021/07/03 03:57:28;;;;;;;14.73;13.37;;;18.80;94.70;;;;;;5031109;28;20701;-49
2021/07/03 03:59:55;;;;;;;14.57;13.00;;;18.90;94.40;;;;;;5049038;28;20676;-49
2021/07/03 04:02:23;;;;;;;17.77;15.97;;;18.90;94.50;;;;;;5053855;28;21002;-49
2021/07/03 04:04:51;;;;;;;15.33;13.87;;;18.90;94.40;;;;;;5069226;28;21141;-49
2021/07/03 04:07:19;;;;;;;15.90;14.43;;;19.00;94.40;;;;;;5053111;28;20699;-48
2021/07/03 04:09:47;;;;;;;16.37;14.77;;;19.00;94.30;;;;;;5048946;28;20615;-49
2021/07/03 04:12:15;;;;;;;16.63;14.93;;;19.00;94.20;;;;;;5049198;28;20630;-49
2021/07/03 04:14:42;;;;;;;16.80;15.03;;;19.00;94.10;;;;;;5049579;28;20691;-50
2021/07/03 04:17:10;;;;;;;16.53;14.80;;;19.00;94.00;;;;;;5048909;28;20654;-50
2021/07/03 04:19:37;;;;;;;17.10;15.50;;;19.00;94.00;;;;;;5049184;28;20757;-49
2021/07/03 04:22:04;;;;;;;19.27;17.30;;;19.00;94.10;;;;;;5049362;28;20618;-50
2021/07/03 04:24:32;;;;;;;16.93;15.23;;;19.00;94.10;;;;;;5050033;28;20688;-50
2021/07/03 04:26:59;;;;;;;17.03;15.40;;;19.00;94.10;;;;;;5049645;28;20670;-49
2021/07/03 04:29:27;;;;;;;17.50;15.70;;;19.00;94.10;;;;;;5049336;28;20622;-50
2021/07/03 04:31:55;;;;;;;17.43;15.70;;;19.00;94.00;;;;;;5064410;28;20633;-50
2021/07/03 04:34:22;;;;;;;17.00;15.30;;;19.00;94.00;;;;;;5069029;28;20703;-48
2021/07/03 04:36:49;;;;;;;18.53;16.73;;;19.00;94.00;;;;;;5051374;28;21210;-50
2021/07/03 04:39:16;;;;;;;18.20;16.30;;;19.10;94.20;;;;;;5048440;28;20715;-49
2021/07/03 04:41:44;;;;;;;18.97;17.10;;;19.10;94.10;;;;;;5048488;28;20688;-49
2021/07/03 04:44:11;;;;;;;18.07;16.43;;;19.10;94.00;;;;;;5050814;28;21152;-49
2021/07/03 04:46:39;;;;;;;18.07;16.17;;;19.10;94.10;;;;;;5040676;28;20705;-49
2021/07/03 04:49:06;;;;;;;17.53;15.27;;;19.10;94.00;;;;;;5044238;28;20626;-50
2021/07/03 04:51:34;;;;;;;15.57;13.57;;;19.10;94.00;;;;;;5048230;28;21035;-49
2021/07/03 04:54:01;;;;;;;18.53;14.90;;;19.10;93.80;;;;;;5055725;28;20701;-50
2021/07/03 04:56:28;;;;;;;14.37;13.13;;;19.00;93.70;;;;;;5033054;28;20655;-49
2021/07/03 04:58:56;;;;;;;14.57;13.13;;;18.80;93.80;;;;;;5028666;28;20978;-49
2021/07/03 05:01:23;;;;;;;15.03;13.53;;;18.70;94.10;;;;;;5029859;28;20619;-50
2021/07/03 05:03:52;;;;;;;14.77;13.30;;;18.70;94.40;;;;;;5057353;28;20625;-49
2021/07/03 05:06:19;;;;;;;15.67;14.20;;;18.70;94.40;;;;;;5050825;28;20702;-48
2021/07/03 05:08:46;;;;;;;15.27;13.70;;;18.60;94.40;;;;;;5048819;28;21299;-50
2021/07/03 05:11:13;;;;;;;13.87;12.50;;;18.60;94.50;;;;;;5048975;28;20619;-49
2021/07/03 05:13:40;;;;;;;13.80;12.60;;;18.60;94.80;;;;;;5046963;28;20650;-49
2021/07/03 05:16:08;;;;;;;14.27;12.77;;;18.60;95.00;;;;;;5052584;28;20641;-49
2021/07/03 05:18:35;;;;;;;13.87;12.50;;;18.60;95.10;;;;;;5059313;28;20735;-49
2021/07/03 05:21:03;;;;;;;16.03;14.63;;;18.70;95.10;;;;;;5048571;28;20618;-49
2021/07/03 05:23:31;;;;;;;15.47;13.97;;;18.70;95.00;;;;;;5048597;28;20741;-49
2021/07/03 05:25:58;;;;;;;16.07;14.50;;;18.80;95.10;;;;;;5048644;28;20760;-49
2021/07/03 05:28:25;;;;;;;14.97;13.63;;;18.80;94.90;;;;;;5056413;28;20981;-48
2021/07/03 05:30:53;;;;;;;15.37;13.90;;;18.90;94.80;;;;;;5056319;28;20626;-48
2021/07/03 05:33:20;;;;;;;16.20;13.97;;;18.90;94.60;;;;;;5052033;28;20962;-48
2021/07/03 05:35:48;;;;;;;14.03;12.63;;;19.00;94.40;;;;;;5052405;28;20669;-48
2021/07/03 05:38:16;;;;;;;15.17;12.57;;;19.10;94.30;;;;;;5052528;28;20687;-48
2021/07/03 05:40:43;;;;;;;16.23;14.20;;;19.10;94.10;;;;;;5051963;28;20634;-49
2021/07/03 05:43:11;;;;;;;16.63;15.03;;;19.20;93.90;;;;;;5052374;28;20692;-48
2021/07/03 05:45:38;;;;;;;16.33;14.80;;;19.20;93.70;;;;;;5051879;28;20707;-48
2021/07/03 05:48:05;;;;;;;17.20;15.40;;;19.30;93.60;;;;;;5052938;28;20641;-48
2021/07/03 05:50:33;;;;;;;14.57;13.17;;;19.40;93.50;;;;;;5051617;28;20642;-48
2021/07/03 05:53:00;;;;;;;15.60;14.10;;;19.40;93.40;;;;;;5052179;28;20937;-47
2021/07/03 05:55:29;;;;;;;14.40;12.83;;;19.50;93.40;;;;;;5051488;28;20719;-49
2021/07/03 05:57:56;;;;;;;14.83;13.30;;;19.60;93.30;;;;;;5055724;28;20621;-48
2021/07/03 06:00:23;;;;;;;15.50;14.10;;;19.60;93.20;;;;;;5059721;28;20642;-47
2021/07/03 06:02:50;;;;;;;15.13;13.73;;;19.60;93.10;;;;;;5051693;28;20625;-49
2021/07/03 06:05:17;;;;;;;15.27;13.60;;;19.60;92.80;;;;;;5051966;28;20960;-47
2021/07/03 06:07:45;;;;;;;14.70;13.17;;;19.60;92.90;;;;;;5051394;28;20783;-47
2021/07/03 06:10:13;;;;;;;14.43;13.20;;;19.70;93.10;;;;;;5051565;28;20618;-49
2021/07/03 06:12:42;;;;;;;17.23;15.63;;;19.70;93.00;;;;;;5051489;28;21196;-49
2021/07/03 06:15:10;;;;;;;16.57;14.73;;;19.80;93.00;;;;;;5051513;28;20689;-48
2021/07/03 06:17:37;;;;;;;16.40;14.90;;;19.80;92.80;;;;;;5051593;28;20771;-48
2021/07/03 06:20:06;;;;;;;14.87;13.27;;;19.90;92.80;;;;;;5051139;28;20662;-50
2021/07/03 06:22:33;;;;;;;14.37;13.07;;;20.00;92.70;;;;;;5051622;28;21162;-48
2021/07/03 06:25:00;;;;;;;15.67;14.33;;;20.00;92.70;;;;;;5051644;28;20667;-47
2021/07/03 06:27:28;;;;;;;15.60;12.90;;;20.10;92.40;;;;;;5050611;28;20673;-48
2021/07/03 06:29:56;;;;;;;16.17;14.70;;;20.10;92.20;;;;;;5032772;28;20695;-49
2021/07/03 06:32:23;;;;;;;16.20;14.60;;;20.20;92.20;;;;;;5051561;28;20632;-48
2021/07/03 06:34:50;;;;;;;15.43;14.03;;;20.30;92.60;;;;;;5051258;28;20638;-48
2021/07/03 06:37:18;;;;;;;15.90;14.30;;;20.30;92.10;;;;;;5051057;28;20642;-48
2021/07/03 06:39:45;;;;;;;15.60;14.00;;;20.40;91.90;;;;;;5050648;28;20658;-47
2021/07/03 06:42:12;;;;;;;16.93;14.63;;;20.30;91.60;;;;;;5050881;28;21178;-47
2021/07/03 06:44:42;;;;;;;14.47;13.07;;;20.30;91.60;;;;;;5051223;28;20637;-48
2021/07/03 06:47:11;;;;;;;14.93;13.53;;;20.30;91.60;;;;;;5050908;28;20653;-48
2021/07/03 06:49:38;;;;;;;15.53;14.03;;;20.30;91.60;;;;;;5050810;28;20695;-46
2021/07/03 06:52:05;;;;;;;16.53;14.90;;;20.30;91.40;;;;;;5050337;28;20665;-49
2021/07/03 06:54:33;;;;;;;16.27;14.73;;;20.30;91.50;;;;;;5050085;28;20657;-49
2021/07/03 06:57:00;;;;;;;15.30;13.73;;;20.20;91.20;;;;;;5045664;28;20654;-48
2021/07/03 06:59:27;;;;;;;16.50;14.73;;;20.30;91.30;;;;;;5054239;28;20661;-48
2021/07/03 07:01:55;;;;;;;15.53;14.03;;;20.40;91.50;;;;;;5070746;28;20625;-48
2021/07/03 07:04:24;;;;;;;14.90;13.47;;;20.40;91.40;;;;;;5068094;28;20671;-48
2021/07/03 07:06:52;;;;;;;15.17;13.83;;;20.40;90.90;;;;;;5050413;28;20995;-48
2021/07/03 07:09:19;;;;;;;15.00;13.70;;;20.50;90.90;;;;;;5050029;28;20630;-48
2021/07/03 07:11:47;;;;;;;14.50;13.10;;;20.50;90.90;;;;;;5049624;28;20673;-49
2021/07/03 07:14:14;;;;;;;17.67;13.37;;;20.50;91.00;;;;;;5050435;28;20695;-48
2021/07/03 07:16:41;;;;;;;14.43;13.13;;;20.60;91.10;;;;;;5050871;28;20654;-48
2021/07/03 07:19:08;;;;;;;14.00;12.00;;;20.60;91.10;;;;;;5055069;28;20752;-47
2021/07/03 07:21:37;;;;;;;16.07;13.73;;;20.70;91.10;;;;;;5050141;28;20633;-47
2021/07/03 07:24:05;;;;;;;14.93;13.43;;;20.80;91.00;;;;;;5049845;28;20654;-48
2021/07/03 07:26:32;;;;;;;14.37;13.17;;;20.80;90.80;;;;;;5049805;28;20665;-48
2021/07/03 07:29:00;;;;;;;17.37;15.20;;;20.80;90.90;;;;;;5050872;28;20740;-48
2021/07/03 07:31:27;;;;;;;14.53;13.20;;;20.90;90.90;;;;;;5050164;28;20707;-48
2021/07/03 07:33:54;;;;;;;14.20;12.90;;;21.00;90.90;;;;;;5049360;28;21202;-49
2021/07/03 07:36:21;;;;;;;14.10;12.80;;;21.10;90.70;;;;;;5049832;28;20680;-47
2021/07/03 07:38:50;;;;;;;15.13;12.83;;;21.10;90.60;;;;;;5049289;28;20672;-48
2021/07/03 07:41:18;;;;;;;13.80;12.40;;;21.20;90.80;;;;;;5049098;28;21238;-48
2021/07/03 07:43:45;;;;;;;15.47;13.87;;;21.40;90.70;;;;;;5049913;28;21020;-48
2021/07/03 07:46:13;;;;;;;12.93;11.83;;;21.60;90.30;;;;;;5049568;28;20761;-49
2021/07/03 07:48:41;;;;;;;13.90;12.50;;;21.70;90.40;;;;;;5048777;28;21174;-47
2021/07/03 07:51:08;;;;;;;12.80;11.70;;;21.90;89.40;;;;;;5049921;28;21011;-48
2021/07/03 07:53:36;;;;;;;13.83;12.50;;;22.00;88.70;;;;;;5049264;28;20633;-48
2021/07/03 07:56:05;;;;;;;13.03;11.77;;;22.00;87.90;;;;;;5049631;28;20653;-49
2021/07/03 07:58:32;;;;;;;13.60;12.07;;;22.10;88.20;;;;;;5049907;28;20791;-49
2021/07/03 08:00:59;;;;;;;13.73;11.90;;;22.10;87.60;;;;;;5044818;28;20737;-50
2021/07/03 08:03:26;;;;;;;12.87;11.77;;;22.10;87.20;;;;;;5048988;28;20626;-49
2021/07/03 08:05:54;;;;;;;13.23;11.10;;;22.20;86.80;;;;;;5048419;28;20823;-47
2021/07/03 08:08:21;;;;;;;13.17;11.97;;;22.40;86.10;;;;;;5049185;28;20626;-47
2021/07/03 08:10:48;;;;;;;13.63;12.40;;;22.50;85.30;;;;;;5048928;28;20626;-48
2021/07/03 08:13:17;;;;;;;14.67;13.13;;;22.60;85.00;;;;;;5049569;28;20638;-49
2021/07/03 08:15:45;;;;;;;11.43;10.50;;;22.70;84.60;;;;;;5048438;28;20717;-48
2021/07/03 08:18:12;;;;;;;11.30;10.40;;;22.80;84.20;;;;;;5047483;28;20633;-48
2021/07/03 08:20:39;;;;;;;12.37;11.27;;;22.90;84.70;;;;;;5047187;28;20720;-48
2021/07/03 08:23:07;;;;;;;11.90;10.80;;;23.00;83.40;;;;;;5047632;28;21193;-47
2021/07/03 08:25:35;;;;;;;14.03;12.83;;;23.20;83.10;;;;;;5048898;28;20688;-48
2021/07/03 08:28:02;;;;;;;12.97;11.87;;;23.40;82.60;;;;;;5049363;28;20638;-50
2021/07/03 08:30:31;;;;;;;13.73;12.40;;;23.50;81.80;;;;;;5044906;28;20630;-49
2021/07/03 08:32:59;;;;;;;12.67;11.37;;;23.60;80.20;;;;;;5045294;28;20692;-49
2021/07/03 08:35:26;;;;;;;12.27;11.07;;;23.60;80.10;;;;;;5049981;28;20984;-49
2021/07/03 08:37:53;;;;;;;11.17;10.27;;;23.60;80.30;;;;;;5048671;28;20900;-49
2021/07/03 08:40:21;;;;;;;12.00;10.67;;;23.60;79.80;;;;;;5047340;28;20650;-50
2021/07/03 08:42:48;;;;;;;12.03;10.93;;;23.60;78.60;;;;;;5047122;28;20626;-49
2021/07/03 08:45:16;;;;;;;13.50;12.30;;;23.50;77.90;;;;;;5045072;28;20658;-49
2021/07/03 08:47:46;;;;;;;11.87;10.80;;;23.40;78.50;;;;;;5044330;28;20702;-49
2021/07/03 08:50:15;;;;;;;13.30;12.10;;;23.30;79.30;;;;;;5047534;28;20733;-49
2021/07/03 08:52:42;;;;;;;10.97;10.07;;;23.40;79.90;;;;;;5047460;28;20974;-49
2021/07/03 08:55:15;;;;;;;14.37;12.93;;;23.30;79.90;;;;;;5047820;28;20617;-49
2021/07/03 08:57:44;;;;;;;14.30;12.40;;;23.40;80.60;;;;;;5048579;28;20662;-46
2021/07/03 09:00:13;;;;;;;14.30;10.80;;;23.40;80.30;;;;;;5048911;28;21009;-50
2021/07/03 09:02:42;;;;;;;11.70;10.60;;;23.50;80.00;;;;;;5053238;28;20633;-50
2021/07/03 09:05:20;;;;;;;12.13;11.00;;;23.60;79.40;;;;;;5052614;28;20652;-49
2021/07/03 09:07:47;;;;;;;12.20;11.10;;;23.60;78.50;;;;;;5052721;28;20634;-48
2021/07/03 09:10:20;;;;;;;11.40;10.40;;;23.60;78.20;;;;;;5052790;28;21028;-51
2021/07/03 09:12:49;;;;;;;13.13;12.00;;;23.50;78.50;;;;;;5052424;28;20648;-49
2021/07/03 09:15:18;;;;;;;12.80;10.73;;;23.50;78.60;;;;;;5053293;28;20621;-50
2021/07/03 09:17:46;;;;;;;12.10;10.90;;;23.60;78.30;;;;;;5052750;28;20691;-50
2021/07/03 09:20:14;;;;;;;11.40;10.37;;;23.70;79.00;;;;;;5052404;28;21176;-50
2021/07/03 09:22:42;;;;;;;12.10;11.00;;;23.90;78.70;;;;;;5052523;28;20697;-50
2021/07/03 09:25:17;;;;;;;11.17;10.17;;;24.00;78.40;;;;;;5053011;28;20671;-50
2021/07/03 09:27:44;;;;;;;12.27;11.10;;;24.20;76.40;;;;;;5053111;28;21005;-50
2021/07/03 09:30:13;;;;;;;11.00;10.00;;;24.50;75.00;;;;;;5051904;28;20679;-50
2021/07/03 09:32:40;;;;;;;10.20;9.30;;;24.80;74.00;;;;;;5051831;28;21151;-48
2021/07/03 09:35:09;;;;;;;9.93;9.03;;;25.10;73.60;;;;;;5052008;28;20618;-51
2021/07/03 09:37:36;;;;;;;11.20;10.23;;;25.20;72.50;;;;;;5052003;28;20680;-49
2021/07/03 09:40:09;;;;;;;11.30;10.23;;;25.10;72.00;;;;;;5052043;28;20621;-50
2021/07/03 09:42:36;;;;;;;10.63;9.67;;;24.90;72.20;;;;;;5052048;28;20795;-51
2021/07/03 09:45:04;;;;;;;10.83;9.83;;;24.80;72.80;;;;;;5051741;28;20652;-52
2021/07/03 09:47:34;;;;;;;12.17;10.97;;;24.80;73.00;;;;;;5051630;28;21210;-49
2021/07/03 09:50:02;;;;;;;11.20;10.20;;;24.60;72.80;;;;;;5051744;28;21193;-50
2021/07/03 09:52:29;;;;;;;11.47;10.57;;;24.50;73.40;;;;;;5051593;28;20935;-50
2021/07/03 09:54:56;;;;;;;8.70;8.00;;;24.50;73.20;;;;;;5051627;28;20691;-51
2021/07/03 09:57:26;;;;;;;10.10;9.20;;;24.60;73.20;;;;;;5051254;28;20703;-50
2021/07/03 09:59:53;;;;;;;9.03;8.33;;;24.50;72.50;;;;;;5050826;28;20626;-50
2021/07/03 10:02:20;;;;;;;6.97;6.40;;;24.50;69.70;;;;;;5051816;28;20731;-50
2021/07/03 10:04:47;;;;;;;8.90;8.00;;;24.40;67.90;;;;;;5051810;28;20637;-51
2021/07/03 10:07:19;;;;;;;6.80;6.30;;;24.30;67.00;;;;;;5051311;28;20707;-50
2021/07/03 10:09:49;;;;;;;8.53;7.83;;;24.20;66.50;;;;;;5051431;28;20733;-49
2021/07/03 10:12:17;;;;;;;7.50;6.80;;;24.20;67.00;;;;;;5050522;28;20625;-51
2021/07/03 10:14:47;;;;;;;7.87;7.13;;;24.30;66.80;;;;;;5051621;28;20745;-51
2021/07/03 10:17:23;;;;;;;7.80;7.20;;;24.20;63.30;;;;;;5051652;28;20661;-50
2021/07/03 10:19:50;;;;;;;6.93;6.37;;;24.20;64.50;;;;;;5052130;28;20971;-50
2021/07/03 10:22:18;;;;;;;6.90;6.23;;;24.20;65.90;;;;;;5071106;28;20661;-50
2021/07/03 10:24:48;;;;;;;7.53;6.93;;;24.20;64.90;;;;;;5057346;28;20637;-50
2021/07/03 10:27:17;;;;;;;8.17;7.37;;;24.10;65.20;;;;;;5052118;28;20669;-50
2021/07/03 10:29:47;;;;;;;8.97;7.87;;;24.10;65.30;;;;;;5060275;28;21190;-50
2021/07/03 10:32:27;;;;;;;7.00;6.30;;;24.20;64.50;;;;;;5051552;28;20614;-50
2021/07/03 10:34:54;;;;;;;10.80;6.40;;;24.20;63.80;;;;;;5051084;28;21228;-50
2021/07/03 10:37:31;;;;;;;7.13;6.53;;;24.20;63.80;;;;;;5050523;28;20695;-49
2021/07/03 10:39:58;;;;;;;7.87;7.17;;;24.20;62.50;;;;;;5050766;28;20686;-50
2021/07/03 10:42:29;;;;;;;8.10;7.40;;;24.30;62.50;;;;;;5050066;28;20658;-50
2021/07/03 10:45:08;;;;;;;7.13;6.53;;;24.40;62.50;;;;;;5050624;28;20687;-50
2021/07/03 10:47:36;;;;;;;7.20;6.57;;;24.40;62.60;;;;;;5061627;28;20633;-49
2021/07/03 10:50:04;;;;;;;6.63;5.90;;;24.40;61.20;;;;;;5071888;28;20625;-50
2021/07/03 10:52:38;;;;;;;7.27;6.57;;;24.40;59.30;;;;;;5072026;28;20629;-50
2021/07/03 10:55:07;;;;;;;5.17;4.67;;;24.40;59.10;;;;;;5056803;28;20717;-50
2021/07/03 10:57:41;;;;;;;6.50;6.00;;;24.50;59.10;;;;;;5051149;28;20622;-51
2021/07/03 11:00:11;;;;;;;5.43;5.00;;;24.50;57.80;;;;;;5050321;28;20683;-50
2021/07/03 11:02:38;;;;;;;5.17;4.80;;;24.60;57.70;;;;;;5051030;28;20658;-50
2021/07/03 11:05:12;;;;;;;5.80;5.20;;;24.60;55.20;;;;;;5051566;28;21219;-50
2021/07/03 11:07:39;;;;;;;6.90;6.30;;;24.70;55.10;;;;;;5050163;28;21162;-50
2021/07/03 11:10:08;;;;;;;10.27;7.10;;;24.70;56.60;;;;;;5050489;28;20687;-50
2021/07/03 11:12:44;;;;;;;6.90;6.30;;;24.70;57.10;;;;;;5050147;28;20699;-51
2021/07/03 11:15:13;;;;;;;6.90;6.40;;;24.60;57.10;;;;;;5050822;28;21174;-50
2021/07/03 11:17:40;;;;;;;5.87;5.23;;;24.60;57.20;;;;;;5049190;28;20634;-49
2021/07/03 11:20:08;;;;;;;5.63;4.80;;;24.60;56.20;;;;;;5050217;28;20679;-50
2021/07/03 11:22:42;;;;;;;6.53;5.93;;;24.70;54.30;;;;;;5049639;28;20711;-50
2021/07/03 11:25:10;;;;;;;4.60;4.27;;;24.80;54.50;;;;;;5049394;28;20683;-50
2021/07/03 11:27:38;;;;;;;4.90;4.50;;;24.90;53.70;;;;;;5049594;28;20728;-51
2021/07/03 11:30:06;;;;;;;5.87;5.37;;;25.00;53.00;;;;;;5050156;28;20637;-51
2021/07/03 11:32:35;;;;;;;5.60;5.10;;;25.10;53.10;;;;;;5050093;28;20657;-51
2021/07/03 11:35:03;;;;;;;6.90;6.30;;;25.30;53.40;;;;;;5049720;28;20629;-51
2021/07/03 11:37:31;;;;;;;7.20;6.63;;;25.40;53.40;;;;;;5050017;28;20715;-50
2021/07/03 11:39:59;;;;;;;7.00;6.50;;;25.40;54.50;;;;;;5049392;28;20634;-49
2021/07/03 11:42:28;;;;;;;7.10;6.50;;;25.40;55.90;;;;;;5049535;28;20735;-51
2021/07/03 11:44:55;;;;;;;7.03;6.53;;;25.40;56.60;;;;;;5047366;28;21176;-50
2021/07/03 11:47:33;;;;;;;7.47;6.77;;;25.40;56.40;;;;;;5048806;28;20658;-50
2021/07/03 11:50:01;;;;;;;8.27;7.57;;;25.40;56.50;;;;;;5048185;28;20707;-49
2021/07/03 11:52:29;;;;;;;8.10;7.40;;;25.40;55.80;;;;;;5047385;28;20970;-49
2021/07/03 11:55:04;;;;;;;8.80;6.33;;;25.40;56.50;;;;;;5043826;28;21187;-50
2021/07/03 11:57:38;;;;;;;6.90;6.40;;;25.50;56.60;;;;;;5057329;28;20722;-49
2021/07/03 12:00:07;;;;;;;6.60;6.10;;;25.60;55.70;;;;;;5060580;28;20622;-50
2021/07/03 12:02:34;;;;;;;6.47;5.93;;;25.70;54.10;;;;;;5050480;28;21019;-50
2021/07/03 12:05:03;;;;;;;6.60;6.00;;;25.70;53.20;;;;;;5048868;28;20792;-48
2021/07/03 12:07:30;;;;;;;6.27;5.43;;;25.80;53.00;;;;;;5049502;28;20654;-49
2021/07/03 12:10:05;;;;;;;6.67;5.97;;;25.80;51.80;;;;;;5031157;28;20699;-50
2021/07/03 12:12:32;;;;;;;5.47;5.07;;;25.70;51.30;;;;;;5049365;28;20679;-49
2021/07/03 12:15:01;;;;;;;5.10;4.70;;;25.70;50.90;;;;;;5049318;28;20622;-50
2021/07/03 12:17:28;;;;;;;6.50;5.03;;;25.70;49.80;;;;;;5049633;28;20706;-50
2021/07/03 12:20:08;;;;;;;6.30;5.80;;;25.80;51.10;;;;;;5048825;28;20638;-49
2021/07/03 12:22:35;;;;;;;6.00;5.50;;;25.90;50.30;;;;;;5049613;28;20665;-50
2021/07/03 12:25:13;;;;;;;5.80;5.40;;;26.00;50.60;;;;;;5049213;28;20691;-49
2021/07/03 12:27:40;;;;;;;4.93;4.53;;;26.00;49.70;;;;;;5047693;28;20679;-49
2021/07/03 12:30:09;;;;;;;5.70;5.20;;;26.00;49.60;;;;;;5048797;28;20625;-49
2021/07/03 12:32:36;;;;;;;7.30;5.80;;;26.00;50.20;;;;;;5049258;28;21182;-49
2021/07/03 12:35:11;;;;;;;10.10;5.67;;;26.10;49.10;;;;;;5049173;28;21226;-49